Strona główna
METAR-TAF:

METAR-TAF

Lotnisko :

Chièvres, Belgia

Szerokość geograficzna: 50-34N, Długość geograficzna: 003-50E, wysokość: 60 m

Aktualna obserwacja pogody

Raport powstał 34 minut temu, godzina 17:25 UTC
Wiatr 2 kt z kierunków zmiennych
Temperatura 22°C
Wilgotność 46%
Ciśnienie 1026 hPa
Widzialność 10 km lub więcej

METAR: EBCV 211725Z AUTO VRB02KT 9999 NCD 22/10 Q1026 BLU

czas: 19:59 (17:59 UTC)

Prognoza

Raport powstał 6 godziny i 18 minut temu, godzina 11:41 UTC
Prognoza ważna od 21 godzina 13 UTC do 21 godzina 22 UTC
Wiatr 2 kt z kierunków zmiennych
Widzialność 10 km lub więcej
Mało chmury na wysokości 3500 ft
Rozproszone chmury na wysokości 22000 ft
Stopniowe zmiany
od 21 godzina 17 UTC do 21 godzina 19 UTC
bezchmurnie

TAF: EBCV 211141Z 2113/2122 VRB02KT 9999 FEW035 SCT220 BECMG 2117/2119 SKC BY EBWM

Obserwacja i prognoza pogody dla ponad 4000 lotnisk (raport METAR i TAF).

Dostępne stacje oznaczono żółtymi i czerwonymi punktami na mapie.

Najedź kursorem aby zobaczyć nazwę stacji.

Kliknij aby zobaczyć obserwacje i prognozy pogody.

Aby zmienić mapę: kliknij na zielony przycisk z czarnym krzyżykiem, aby powiększyć; na zielony przycisk z myślnikiem, aby pomniejszyć; na zielone strzałki, aby przejść do map sąsiednich.


METAR-TAF: